PGT7ZM LTAC-LTAI
Flight info
| Callsign | PGT7ZM |
|---|---|
| Flight time | N/A |
| Altitude | 35000 |
| Route | HALIL UP29 HISAR |
| Aircraft | A320/M-SDE3FGHIRWY/LB1 |
Departure
| Time | 2026-05-05 13:06 |
|---|---|
| Airport | Esenboğa International Airport (LTAC) |
Arrival
| Time | N/A |
|---|---|
| Airport | Antalya International Airport (LTAI) |
| Time | Latitude | Longitude | Altitude | Speed | Heading |
|---|---|---|---|---|---|
| 2026-05-05 12:38 | 40.11579 | 32.99076 | 3136 ft | 0 kts | 143° |
| 2026-05-05 12:39 | 40.11580 | 32.99076 | 3136 ft | 0 kts | 143° |
| 2026-05-05 12:52 | 40.11592 | 32.99063 | 3136 ft | 3 kts | 133° |
| 2026-05-05 12:52 | 40.11604 | 32.99043 | 3136 ft | 3 kts | 115° |
| 2026-05-05 12:53 | 40.11611 | 32.99019 | 3136 ft | 3 kts | 97° |
| 2026-05-05 12:53 | 40.11612 | 32.98993 | 3136 ft | 3 kts | 77° |
| 2026-05-05 12:53 | 40.11606 | 32.98971 | 3136 ft | 2 kts | 49° |
| 2026-05-05 12:53 | 40.11604 | 32.98968 | 3136 ft | 0 kts | 46° |
| 2026-05-05 12:56 | 40.11605 | 32.98970 | 3136 ft | 1 kts | 46° |
| 2026-05-05 12:56 | 40.11611 | 32.98979 | 3136 ft | 2 kts | 47° |
| 2026-05-05 12:56 | 40.11621 | 32.98994 | 3136 ft | 4 kts | 51° |
| 2026-05-05 12:57 | 40.11636 | 32.99020 | 3136 ft | 7 kts | 54° |
| 2026-05-05 12:57 | 40.11675 | 32.99090 | 3136 ft | 12 kts | 54° |
| 2026-05-05 12:57 | 40.11749 | 32.99121 | 3136 ft | 12 kts | 335° |
| 2026-05-05 12:57 | 40.11819 | 32.99038 | 3136 ft | 13 kts | 339° |
| 2026-05-05 12:58 | 40.11906 | 32.99099 | 3136 ft | 16 kts | 37° |
| 2026-05-05 12:58 | 40.12004 | 32.99194 | 3136 ft | 19 kts | 36° |
| 2026-05-05 12:58 | 40.12119 | 32.99302 | 3136 ft | 21 kts | 36° |
| 2026-05-05 12:58 | 40.12238 | 32.99417 | 3136 ft | 22 kts | 36° |
| 2026-05-05 12:59 | 40.12330 | 32.99505 | 3136 ft | 14 kts | 37° |
| 2026-05-05 12:59 | 40.12400 | 32.99574 | 3136 ft | 12 kts | 37° |
| 2026-05-05 12:59 | 40.12460 | 32.99630 | 3136 ft | 10 kts | 35° |
| 2026-05-05 13:00 | 40.12553 | 32.99716 | 3136 ft | 8 kts | 35° |
| 2026-05-05 13:00 | 40.12606 | 32.99766 | 3136 ft | 11 kts | 36° |
| 2026-05-05 13:01 | 40.12889 | 33.00034 | 3136 ft | 22 kts | 35° |
| 2026-05-05 13:01 | 40.13005 | 33.00147 | 3136 ft | 21 kts | 36° |
| 2026-05-05 13:01 | 40.13128 | 33.00263 | 3136 ft | 22 kts | 37° |
| 2026-05-05 13:01 | 40.13256 | 33.00385 | 3136 ft | 23 kts | 36° |
| 2026-05-05 13:02 | 40.13376 | 33.00500 | 3136 ft | 22 kts | 36° |
| 2026-05-05 13:02 | 40.13497 | 33.00615 | 3136 ft | 22 kts | 36° |
| 2026-05-05 13:02 | 40.13611 | 33.00724 | 3136 ft | 21 kts | 36° |
| 2026-05-05 13:02 | 40.13732 | 33.00837 | 3136 ft | 21 kts | 35° |
| 2026-05-05 13:03 | 40.13840 | 33.00943 | 3136 ft | 18 kts | 36° |
| 2026-05-05 13:03 | 40.13925 | 33.01024 | 3136 ft | 14 kts | 36° |
| 2026-05-05 13:03 | 40.14002 | 33.01077 | 3136 ft | 12 kts | 9° |
| 2026-05-05 13:03 | 40.14083 | 33.01035 | 3136 ft | 12 kts | 309° |
| 2026-05-05 13:04 | 40.14117 | 33.00921 | 3136 ft | 15 kts | 291° |
| 2026-05-05 13:04 | 40.14182 | 33.00806 | 3136 ft | 14 kts | 308° |
| 2026-05-05 13:04 | 40.14229 | 33.00721 | 3136 ft | 9 kts | 299° |
| 2026-05-05 13:04 | 40.14193 | 33.00667 | 3136 ft | 8 kts | 214° |
| 2026-05-05 13:05 | 40.14184 | 33.00659 | 3136 ft | 0 kts | 216° |
| 2026-05-05 13:05 | 40.14006 | 33.00487 | 3136 ft | 69 kts | 216° |
| 2026-05-05 13:05 | 40.13436 | 32.99944 | 3136 ft | 129 kts | 216° |
| 2026-05-05 13:06 | 40.12570 | 32.99120 | 3184 ft | 171 kts | 217° |
| 2026-05-05 13:06 | 40.11630 | 32.98215 | 3922 ft | 164 kts | 217° |
| 2026-05-05 13:06 | 40.10707 | 32.97357 | 4728 ft | 163 kts | 217° |
| 2026-05-05 13:06 | 40.09750 | 32.96466 | 5179 ft | 178 kts | 218° |
| 2026-05-05 13:07 | 40.08688 | 32.95460 | 5453 ft | 200 kts | 217° |
| 2026-05-05 13:07 | 40.07499 | 32.94333 | 5715 ft | 223 kts | 217° |
| 2026-05-05 13:07 | 40.06174 | 32.93078 | 6075 ft | 246 kts | 217° |
| 2026-05-05 13:07 | 40.04766 | 32.91744 | 6799 ft | 253 kts | 217° |
| 2026-05-05 13:08 | 40.03325 | 32.90382 | 7629 ft | 257 kts | 217° |
| 2026-05-05 13:08 | 40.01799 | 32.89133 | 8456 ft | 263 kts | 200° |
| 2026-05-05 13:08 | 39.99972 | 32.88926 | 9196 ft | 273 kts | 168° |
| 2026-05-05 13:08 | 39.98193 | 32.89976 | 9689 ft | 289 kts | 147° |
| 2026-05-05 13:09 | 39.96492 | 32.91456 | 10278 ft | 303 kts | 144° |
| 2026-05-05 13:09 | 39.94714 | 32.93112 | 10571 ft | 326 kts | 143° |
| 2026-05-05 13:09 | 39.92838 | 32.94883 | 11085 ft | 338 kts | 143° |
| 2026-05-05 13:09 | 39.90815 | 32.96493 | 11797 ft | 344 kts | 155° |
| 2026-05-05 13:10 | 39.88526 | 32.97465 | 12541 ft | 349 kts | 169° |
| 2026-05-05 13:10 | 39.86092 | 32.97707 | 12966 ft | 352 kts | 183° |
| 2026-05-05 13:10 | 39.83634 | 32.97462 | 13699 ft | 356 kts | 185° |
| 2026-05-05 13:10 | 39.81165 | 32.97067 | 14370 ft | 360 kts | 193° |
| 2026-05-05 13:11 | 39.78780 | 32.96055 | 15016 ft | 363 kts | 205° |
| 2026-05-05 13:11 | 39.76600 | 32.94401 | 15651 ft | 365 kts | 218° |
| 2026-05-05 13:11 | 39.74715 | 32.92182 | 16311 ft | 367 kts | 227° |
| 2026-05-05 13:11 | 39.72933 | 32.89784 | 16950 ft | 371 kts | 227° |
| 2026-05-05 13:12 | 39.71128 | 32.87368 | 17604 ft | 374 kts | 227° |
| 2026-05-05 13:12 | 39.69300 | 32.84934 | 18237 ft | 378 kts | 227° |
| 2026-05-05 13:12 | 39.67454 | 32.82484 | 18795 ft | 382 kts | 227° |
| 2026-05-05 13:12 | 39.65561 | 32.79973 | 19320 ft | 386 kts | 228° |
| 2026-05-05 13:13 | 39.63701 | 32.77506 | 19850 ft | 390 kts | 228° |
| 2026-05-05 13:13 | 39.61774 | 32.74946 | 20361 ft | 394 kts | 229° |
| 2026-05-05 13:13 | 39.59852 | 32.72390 | 20878 ft | 398 kts | 229° |
| 2026-05-05 13:13 | 39.57913 | 32.69807 | 21372 ft | 402 kts | 229° |
| 2026-05-05 13:14 | 39.55950 | 32.67198 | 21858 ft | 406 kts | 229° |
| 2026-05-05 13:14 | 39.53970 | 32.64572 | 22342 ft | 410 kts | 229° |
| 2026-05-05 13:14 | 39.51968 | 32.61920 | 22829 ft | 414 kts | 230° |
| 2026-05-05 13:14 | 39.49944 | 32.59246 | 23307 ft | 417 kts | 230° |
| 2026-05-05 13:15 | 39.47902 | 32.56554 | 23747 ft | 421 kts | 230° |
| 2026-05-05 13:15 | 39.45848 | 32.53834 | 24153 ft | 423 kts | 232° |
| 2026-05-05 13:15 | 39.44032 | 32.50874 | 24571 ft | 419 kts | 242° |
| 2026-05-05 13:15 | 39.42642 | 32.47585 | 24992 ft | 414 kts | 252° |
| 2026-05-05 13:16 | 39.41582 | 32.44131 | 25398 ft | 414 kts | 255° |
| 2026-05-05 13:16 | 39.40420 | 32.40697 | 25804 ft | 421 kts | 247° |
| 2026-05-05 13:16 | 39.38777 | 32.37520 | 26199 ft | 431 kts | 236° |
| 2026-05-05 13:16 | 39.36635 | 32.34745 | 26595 ft | 441 kts | 224° |
| 2026-05-05 13:17 | 39.34059 | 32.32515 | 26973 ft | 451 kts | 212° |
| 2026-05-05 13:17 | 39.31242 | 32.30678 | 27338 ft | 455 kts | 211° |
| 2026-05-05 13:17 | 39.28410 | 32.28844 | 27712 ft | 457 kts | 211° |
| 2026-05-05 13:17 | 39.25560 | 32.26992 | 28077 ft | 460 kts | 211° |
| 2026-05-05 13:18 | 39.22698 | 32.25128 | 28435 ft | 462 kts | 211° |
| 2026-05-05 13:18 | 39.19822 | 32.23253 | 28784 ft | 465 kts | 212° |
| 2026-05-05 13:18 | 39.16931 | 32.21369 | 29135 ft | 467 kts | 212° |
| 2026-05-05 13:18 | 39.14019 | 32.19476 | 29465 ft | 470 kts | 212° |
| 2026-05-05 13:19 | 39.11094 | 32.17579 | 29805 ft | 472 kts | 212° |
| 2026-05-05 13:19 | 39.08153 | 32.15676 | 30124 ft | 474 kts | 212° |
| 2026-05-05 13:19 | 39.05198 | 32.13765 | 30388 ft | 476 kts | 212° |
| 2026-05-05 13:19 | 39.02237 | 32.11850 | 30675 ft | 478 kts | 212° |
| 2026-05-05 13:20 | 38.99258 | 32.09926 | 30955 ft | 480 kts | 212° |
| 2026-05-05 13:20 | 38.96271 | 32.07996 | 31220 ft | 481 kts | 212° |
| 2026-05-05 13:20 | 38.93238 | 32.06039 | 31558 ft | 481 kts | 212° |
| 2026-05-05 13:20 | 38.90250 | 32.04118 | 31954 ft | 480 kts | 211° |
| 2026-05-05 13:21 | 38.87267 | 32.02206 | 32343 ft | 479 kts | 211° |
| 2026-05-05 13:21 | 38.84289 | 32.00302 | 32727 ft | 477 kts | 211° |
| 2026-05-05 13:21 | 38.81322 | 31.98403 | 33114 ft | 476 kts | 211° |
| 2026-05-05 13:21 | 38.78364 | 31.96505 | 33501 ft | 475 kts | 212° |
| 2026-05-05 13:22 | 38.75410 | 31.94613 | 33883 ft | 474 kts | 212° |
| 2026-05-05 13:22 | 38.72463 | 31.92726 | 34228 ft | 473 kts | 211° |
| 2026-05-05 13:22 | 38.69521 | 31.90842 | 34537 ft | 472 kts | 211° |
| 2026-05-05 13:22 | 38.66584 | 31.88965 | 34837 ft | 472 kts | 211° |
| 2026-05-05 13:23 | 38.63647 | 31.87090 | 34988 ft | 471 kts | 211° |
| 2026-05-05 13:23 | 38.60724 | 31.85224 | 35024 ft | 469 kts | 211° |
| 2026-05-05 13:23 | 38.54881 | 31.81500 | 35023 ft | 469 kts | 211° |
| 2026-05-05 13:24 | 38.49038 | 31.77774 | 35025 ft | 469 kts | 211° |
| 2026-05-05 13:24 | 38.43197 | 31.74074 | 35025 ft | 468 kts | 211° |
| 2026-05-05 13:25 | 38.37365 | 31.70387 | 35026 ft | 468 kts | 211° |
| 2026-05-05 13:25 | 38.31537 | 31.66702 | 35016 ft | 467 kts | 211° |
| 2026-05-05 13:26 | 38.28632 | 31.64874 | 34907 ft | 463 kts | 211° |
| 2026-05-05 13:26 | 38.25757 | 31.63068 | 34398 ft | 459 kts | 211° |
| 2026-05-05 13:26 | 38.22908 | 31.61275 | 33957 ft | 454 kts | 212° |
| 2026-05-05 13:26 | 38.20095 | 31.59499 | 33441 ft | 450 kts | 212° |
| 2026-05-05 13:27 | 38.17300 | 31.57735 | 32957 ft | 445 kts | 212° |
| 2026-05-05 13:27 | 38.14561 | 31.56011 | 32743 ft | 435 kts | 212° |
| 2026-05-05 13:27 | 38.11760 | 31.54579 | 32368 ft | 435 kts | 200° |
| 2026-05-05 13:27 | 38.08776 | 31.53918 | 31940 ft | 438 kts | 187° |
| 2026-05-05 13:28 | 38.05743 | 31.53722 | 31468 ft | 435 kts | 187° |
| 2026-05-05 13:28 | 38.02688 | 31.53538 | 31007 ft | 432 kts | 187° |
| 2026-05-05 13:28 | 37.99693 | 31.53357 | 30554 ft | 429 kts | 187° |
| 2026-05-05 13:28 | 37.96721 | 31.53173 | 30107 ft | 426 kts | 187° |
| 2026-05-05 13:29 | 37.93769 | 31.52989 | 29591 ft | 423 kts | 187° |
| 2026-05-05 13:29 | 37.90839 | 31.52804 | 29090 ft | 420 kts | 187° |
| 2026-05-05 13:29 | 37.87928 | 31.52621 | 28598 ft | 417 kts | 187° |
| 2026-05-05 13:29 | 37.85043 | 31.52439 | 28115 ft | 414 kts | 187° |
| 2026-05-05 13:30 | 37.83135 | 31.52321 | 27797 ft | 412 kts | 187° |
| 2026-05-05 13:30 | 37.80282 | 31.52141 | 27320 ft | 410 kts | 187° |
| 2026-05-05 13:30 | 37.77445 | 31.51958 | 26857 ft | 407 kts | 188° |
| 2026-05-05 13:30 | 37.74637 | 31.51694 | 26403 ft | 403 kts | 190° |
| 2026-05-05 13:31 | 37.71859 | 31.51329 | 25956 ft | 400 kts | 191° |
| 2026-05-05 13:31 | 37.69108 | 31.50910 | 25522 ft | 397 kts | 192° |
| 2026-05-05 13:31 | 37.66378 | 31.50475 | 25072 ft | 395 kts | 192° |
| 2026-05-05 13:31 | 37.63661 | 31.50048 | 24644 ft | 392 kts | 192° |
| 2026-05-05 13:32 | 37.60958 | 31.49638 | 24217 ft | 391 kts | 192° |
| 2026-05-05 13:32 | 37.58263 | 31.49250 | 23800 ft | 389 kts | 191° |
| 2026-05-05 13:32 | 37.55582 | 31.48876 | 23359 ft | 387 kts | 191° |
| 2026-05-05 13:32 | 37.52916 | 31.48510 | 22908 ft | 384 kts | 191° |
| 2026-05-05 13:33 | 37.50269 | 31.48148 | 22490 ft | 381 kts | 190° |
| 2026-05-05 13:33 | 37.47608 | 31.47780 | 22081 ft | 378 kts | 190° |
| 2026-05-05 13:33 | 37.45002 | 31.47417 | 21692 ft | 375 kts | 190° |
| 2026-05-05 13:33 | 37.42418 | 31.47055 | 21306 ft | 372 kts | 190° |
| 2026-05-05 13:34 | 37.39851 | 31.46696 | 20906 ft | 370 kts | 189° |
| 2026-05-05 13:34 | 37.37297 | 31.46340 | 20503 ft | 368 kts | 189° |
| 2026-05-05 13:34 | 37.34766 | 31.45991 | 20150 ft | 365 kts | 189° |
| 2026-05-05 13:34 | 37.32252 | 31.45642 | 19785 ft | 363 kts | 189° |
| 2026-05-05 13:35 | 37.29751 | 31.45296 | 19432 ft | 360 kts | 188° |
| 2026-05-05 13:35 | 37.27265 | 31.44953 | 19066 ft | 358 kts | 188° |
| 2026-05-05 13:35 | 37.24790 | 31.44611 | 18718 ft | 356 kts | 188° |
| 2026-05-05 13:35 | 37.22335 | 31.44270 | 18375 ft | 354 kts | 187° |
| 2026-05-05 13:36 | 37.19890 | 31.43931 | 17998 ft | 353 kts | 187° |
| 2026-05-05 13:36 | 37.17459 | 31.43598 | 17611 ft | 350 kts | 187° |
| 2026-05-05 13:36 | 37.15112 | 31.42913 | 17248 ft | 344 kts | 208° |
| 2026-05-05 13:36 | 37.13216 | 31.41203 | 16922 ft | 332 kts | 233° |
| 2026-05-05 13:37 | 37.12059 | 31.38780 | 16572 ft | 321 kts | 256° |
| 2026-05-05 13:37 | 37.11752 | 31.36080 | 16246 ft | 310 kts | 278° |
| 2026-05-05 13:37 | 37.11978 | 31.33405 | 15900 ft | 308 kts | 280° |
| 2026-05-05 13:37 | 37.12220 | 31.30739 | 15582 ft | 307 kts | 280° |
| 2026-05-05 13:38 | 37.12458 | 31.28090 | 15312 ft | 304 kts | 279° |
| 2026-05-05 13:38 | 37.12687 | 31.25491 | 15192 ft | 296 kts | 279° |
| 2026-05-05 13:38 | 37.12578 | 31.22938 | 15060 ft | 294 kts | 259° |
| 2026-05-05 13:38 | 37.11763 | 31.20604 | 14932 ft | 293 kts | 238° |
| 2026-05-05 13:39 | 37.10409 | 31.18720 | 14809 ft | 289 kts | 228° |
| 2026-05-05 13:39 | 37.08995 | 31.16957 | 14657 ft | 284 kts | 228° |
| 2026-05-05 13:39 | 37.07603 | 31.15217 | 14430 ft | 282 kts | 228° |
| 2026-05-05 13:39 | 37.06221 | 31.13484 | 14200 ft | 280 kts | 228° |
| 2026-05-05 13:40 | 37.04848 | 31.11758 | 13953 ft | 279 kts | 228° |
| 2026-05-05 13:40 | 37.03482 | 31.10041 | 13748 ft | 278 kts | 228° |
| 2026-05-05 13:40 | 37.02123 | 31.08337 | 13423 ft | 277 kts | 227° |
| 2026-05-05 13:40 | 37.00767 | 31.06640 | 13148 ft | 275 kts | 227° |
| 2026-05-05 13:41 | 36.99414 | 31.04948 | 12904 ft | 274 kts | 227° |
| 2026-05-05 13:41 | 36.98053 | 31.03247 | 12636 ft | 272 kts | 227° |
| 2026-05-05 13:41 | 36.96722 | 31.01584 | 12296 ft | 269 kts | 227° |
| 2026-05-05 13:41 | 36.95400 | 30.99935 | 11818 ft | 268 kts | 227° |
| 2026-05-05 13:42 | 36.94086 | 30.98294 | 11348 ft | 266 kts | 227° |
| 2026-05-05 13:42 | 36.92785 | 30.96667 | 10898 ft | 264 kts | 227° |
| 2026-05-05 13:42 | 36.91473 | 30.95072 | 10427 ft | 263 kts | 221° |
| 2026-05-05 13:42 | 36.89918 | 30.93884 | 9971 ft | 263 kts | 203° |
| 2026-05-05 13:43 | 36.88151 | 30.93333 | 9475 ft | 263 kts | 185° |
| 2026-05-05 13:43 | 36.86328 | 30.93163 | 8917 ft | 262 kts | 186° |
| 2026-05-05 13:43 | 36.84460 | 30.92977 | 8076 ft | 273 kts | 186° |
| 2026-05-05 13:43 | 36.82615 | 30.92788 | 7758 ft | 261 kts | 186° |
| 2026-05-05 13:44 | 36.80815 | 30.92603 | 7277 ft | 258 kts | 186° |
| 2026-05-05 13:44 | 36.79032 | 30.92425 | 6751 ft | 257 kts | 186° |
| 2026-05-05 13:44 | 36.77256 | 30.92252 | 6225 ft | 256 kts | 186° |
| 2026-05-05 13:44 | 36.75485 | 30.92074 | 5686 ft | 254 kts | 185° |
| 2026-05-05 13:45 | 36.73734 | 30.91891 | 5185 ft | 252 kts | 186° |
| 2026-05-05 13:45 | 36.71992 | 30.91708 | 4641 ft | 251 kts | 186° |
| 2026-05-05 13:45 | 36.70262 | 30.91519 | 4157 ft | 248 kts | 186° |
| 2026-05-05 13:45 | 36.68559 | 30.91326 | 3679 ft | 244 kts | 186° |
| 2026-05-05 13:46 | 36.66937 | 30.90806 | 3330 ft | 240 kts | 208° |
| 2026-05-05 13:46 | 36.65667 | 30.89522 | 3032 ft | 234 kts | 235° |
| 2026-05-05 13:46 | 36.64998 | 30.87732 | 2810 ft | 224 kts | 260° |
| 2026-05-05 13:46 | 36.64986 | 30.85835 | 2550 ft | 218 kts | 284° |
| 2026-05-05 13:47 | 36.65589 | 30.84122 | 2267 ft | 217 kts | 306° |
| 2026-05-05 13:47 | 36.66695 | 30.82860 | 1943 ft | 218 kts | 329° |
| 2026-05-05 13:47 | 36.68122 | 30.82228 | 1578 ft | 220 kts | 345° |
| 2026-05-05 13:47 | 36.69613 | 30.81796 | 1483 ft | 222 kts | 345° |
| 2026-05-05 13:48 | 36.71119 | 30.81352 | 1475 ft | 222 kts | 345° |
| 2026-05-05 13:48 | 36.72632 | 30.80905 | 1483 ft | 223 kts | 345° |
| 2026-05-05 13:48 | 36.74140 | 30.80460 | 1478 ft | 222 kts | 345° |
| 2026-05-05 13:48 | 36.75647 | 30.80012 | 1476 ft | 222 kts | 344° |
| 2026-05-05 13:49 | 36.77118 | 30.79577 | 1476 ft | 208 kts | 345° |
| 2026-05-05 13:49 | 36.78505 | 30.79405 | 1493 ft | 197 kts | 4° |
| 2026-05-05 13:49 | 36.79801 | 30.79585 | 1482 ft | 176 kts | 5° |
| 2026-05-05 13:49 | 36.80965 | 30.79744 | 1488 ft | 158 kts | 5° |
| 2026-05-05 13:50 | 36.82038 | 30.79891 | 1343 ft | 152 kts | 5° |
| 2026-05-05 13:50 | 36.83085 | 30.80034 | 1166 ft | 151 kts | 4° |
| 2026-05-05 13:50 | 36.84134 | 30.80177 | 974 ft | 153 kts | 3° |